Time;durP1;ratioP1;P1;durP2;ratioP2;P2;SDS_P1;SDS_P2;PMS_P1;PMS_P2;Temp;Humidity;BMP_temperature;BMP_pressure;BME280_temperature;BME280_humidity;BME280_pressure;Samples;Min_cycle;Max_cycle;Signal;HPM_P1;HPM_P2
2022/11/11 00:06:15;;;;;;;7.07;6.33;;;;;;;4.51;100.00;97790.50;5030107;28;101981;-69
2022/11/11 00:09:03;;;;;;;7.37;6.20;;;;;;;4.40;100.00;97788.28;5033096;28;102217;-69
2022/11/11 00:12:16;;;;;;;6.93;5.93;;;;;;;4.24;100.00;97791.06;5030047;28;102104;-69
2022/11/11 00:15:02;;;;;;;6.43;5.83;;;;;;;4.14;100.00;97794.94;5029687;28;101665;-69
2022/11/11 00:27:32;;;;;;;5.80;5.30;;;;;;;3.99;100.00;97765.91;5033181;28;101750;-69
2022/11/11 00:30:18;;;;;;;5.30;4.80;;;;;;;4.04;100.00;97762.75;5029991;28;101679;-69
2022/11/11 00:33:37;;;;;;;5.40;4.90;;;;;;;3.78;100.00;97760.44;5029183;28;102227;-69
2022/11/11 00:37:16;;;;;;;5.33;4.93;;;;;;;3.73;100.00;97759.34;5033092;28;101747;-69
2022/11/11 00:40:04;;;;;;;5.77;5.27;;;;;;;3.83;100.00;97762.59;5029178;28;102185;-69
2022/11/11 00:52:45;;;;;;;6.43;5.83;;;;;;;3.79;100.00;97766.56;5032838;28;101676;-69
2022/11/11 00:55:33;;;;;;;6.53;6.03;;;;;;;3.82;100.00;97758.31;5029299;28;102077;-69
2022/11/11 00:58:18;;;;;;;6.80;6.20;;;;;;;3.85;100.00;97763.22;5028505;28;102195;-69
2022/11/11 01:01:04;;;;;;;6.80;6.20;;;;;;;3.91;100.00;97771.25;5033061;28;101693;-69
2022/11/11 01:07:31;;;;;;;6.33;5.83;;;;;;;3.97;100.00;97767.91;5008880;28;101666;-69
2022/11/11 01:10:36;;;;;;;6.43;5.93;;;;;;;4.00;100.00;97767.56;5009390;28;102059;-69
2022/11/11 01:13:47;;;;;;;8.13;6.80;;;;;;;4.03;100.00;97755.84;5008660;28;102225;-69
2022/11/11 01:16:33;;;;;;;7.80;7.00;;;;;;;4.12;100.00;97747.72;5024994;28;101649;-69
2022/11/11 01:19:19;;;;;;;7.07;6.47;;;;;;;4.06;100.00;97758.13;5009125;28;102195;-69
2022/11/11 01:22:11;;;;;;;6.57;5.97;;;;;;;4.03;100.00;97756.66;5008138;28;102270;-69
2022/11/11 01:24:56;;;;;;;6.67;6.07;;;;;;;3.91;100.00;97755.44;5009053;28;101711;-69
2022/11/11 01:27:42;;;;;;;6.47;5.87;;;;;;;4.00;100.00;97761.47;5018519;28;102097;-69
2022/11/11 01:30:33;;;;;;;6.50;5.90;;;;;;;4.10;100.00;97754.16;5029004;28;101673;-68
2022/11/11 01:33:37;;;;;;;6.20;5.70;;;;;;;4.10;100.00;97756.78;5029213;28;102071;-69
2022/11/11 01:36:37;;;;;;;6.47;5.87;;;;;;;4.08;100.00;97756.13;5027878;28;102230;-69
2022/11/11 01:39:23;;;;;;;6.50;6.00;;;;;;;4.15;100.00;97754.44;5028803;28;101632;-69
2022/11/11 01:42:31;;;;;;;7.07;6.37;;;;;;;4.12;100.00;97771.41;5008733;28;102009;-69
2022/11/11 01:45:51;;;;;;;7.23;6.20;;;;;;;4.17;100.00;97768.25;5019774;28;102311;-69
2022/11/11 01:55:26;;;;;;;6.60;6.00;;;;;;;4.31;100.00;97754.31;5031156;28;102106;-69
2022/11/11 01:58:15;;;;;;;6.83;6.23;;;;;;;4.36;100.00;97763.31;5028208;28;102061;-69
2022/11/11 02:01:03;;;;;;;5.80;5.30;;;;;;;4.43;100.00;97769.47;5027955;28;102200;-69
2022/11/11 02:07:14;;;;;;;5.33;4.83;;;;;;;4.25;100.00;97781.34;5031601;28;102092;-69
2022/11/11 02:10:02;;;;;;;47.00;5.97;;;;;;;4.16;100.00;97796.38;5027599;28;102311;-69
2022/11/11 02:16:30;;;;;;;5.20;4.80;;;;;;;4.01;100.00;97773.63;5028244;28;101900;-69
2022/11/11 02:19:22;;;;;;;4.43;4.13;;;;;;;3.97;100.00;97782.88;5027385;28;102286;-69
2022/11/11 02:22:52;;;;;;;8.47;4.60;;;;;;;3.84;100.00;97772.94;5031668;28;101665;-69
2022/11/11 02:25:42;;;;;;;4.80;4.40;;;;;;;3.87;100.00;97774.41;5027384;28;102234;-69
2022/11/11 02:28:29;;;;;;;7.40;4.23;;;;;;;3.68;100.00;97777.47;5028143;28;101668;-69
2022/11/11 02:31:14;;;;;;;4.17;3.87;;;;;;;3.80;100.00;97778.72;5027931;28;102108;-69
2022/11/11 02:34:04;;;;;;;4.27;3.97;;;;;;;3.78;100.00;97780.69;5027416;28;104043;-69
2022/11/11 02:37:27;;;;;;;4.73;4.30;;;;;;;3.92;100.00;97782.56;5027976;28;101755;-69
2022/11/11 02:40:16;;;;;;;4.17;3.87;;;;;;;3.87;100.00;97782.28;5027822;28;102139;-69
2022/11/11 02:46:48;;;;;;;4.23;3.93;;;;;;;3.61;100.00;97787.06;5027740;28;101653;-69
2022/11/11 02:49:33;;;;;;;4.07;3.80;;;;;;;3.50;100.00;97774.28;5010430;28;102110;-69
2022/11/11 02:52:44;;;;;;;4.37;4.07;;;;;;;3.42;100.00;97780.41;5011614;28;103226;-69
2022/11/11 02:55:29;;;;;;;4.80;4.50;;;;;;;3.42;100.00;97776.94;5027879;28;102076;-69
2022/11/11 02:58:16;;;;;;;4.73;4.30;;;;;;;3.22;100.00;97786.25;5027010;28;102208;-69
2022/11/11 03:01:01;;;;;;;4.50;4.20;;;;;;;3.28;100.00;97786.38;5027371;28;101680;-69
2022/11/11 03:03:54;;;;;;;5.57;4.50;;;;;;;3.40;100.00;97789.47;5027676;28;102053;-69
2022/11/11 03:07:05;;;;;;;4.30;4.00;;;;;;;3.39;100.00;97787.81;5027038;28;101757;-69
2022/11/11 03:09:50;;;;;;;4.90;4.50;;;;;;;3.29;100.00;97793.28;5027440;28;101989;-69
2022/11/11 03:13:23;;;;;;;4.50;4.13;;;;;;;3.36;100.00;97801.31;5027335;28;102123;-69
2022/11/11 03:17:38;;;;;;;3.60;3.40;;;;;;;3.27;100.00;97804.97;5030527;28;102243;-69
2022/11/11 03:19:14;;;;;;;5.40;3.70;;;;;;;3.12;100.00;97806.66;5028438;28;102107;-69
2022/11/11 03:25:43;;;;;;;3.40;3.20;;;;;;;3.19;100.00;97810.25;5027360;28;101921;-69
2022/11/11 03:28:29;;;;;;;3.40;3.20;;;;;;;3.22;100.00;97812.56;5027274;28;102044;-69
2022/11/11 03:31:14;;;;;;;3.53;3.33;;;;;;;3.06;100.00;97820.50;5026757;28;102206;-69
2022/11/11 03:34:23;;;;;;;3.50;3.30;;;;;;;3.17;100.00;97822.75;5027384;28;101706;-69
2022/11/11 03:40:14;;;;;;;3.30;3.10;;;;;;;3.21;100.00;97837.19;5029679;28;102240;-69
2022/11/11 03:43:15;;;;;;;4.53;3.47;;;;;;;3.15;100.00;97840.47;5027029;28;102056;-69
2022/11/11 03:46:02;;;;;;;3.50;3.30;;;;;;;2.93;100.00;97847.28;5028629;28;102214;-69
2022/11/11 03:48:48;;;;;;;3.77;3.47;;;;;;;3.00;100.00;97856.13;5027056;28;101749;-69
2022/11/11 03:51:36;;;;;;;3.13;2.93;;;;;;;3.06;100.00;97854.66;5026982;28;102040;-69
2022/11/11 03:54:21;;;;;;;3.53;3.27;;;;;;;3.09;100.00;97857.75;5027848;27;102258;-69
2022/11/11 04:00:10;;;;;;;3.30;3.10;;;;;;;3.16;100.00;97860.53;5033650;28;102056;-69
2022/11/11 04:10:26;;;;;;;3.83;3.53;;;;;;;3.14;100.00;97858.06;5032833;28;102634;-69
2022/11/11 04:16:53;;;;;;;3.70;3.40;;;;;;;3.29;100.00;97866.88;5029922;28;101938;-69
2022/11/11 04:26:24;;;;;;;4.37;4.07;;;;;;;3.51;100.00;97863.53;5029938;28;101942;-69
2022/11/11 04:32:37;;;;;;;4.57;4.17;;;;;;;3.58;100.00;97868.91;5033211;28;101722;-69
2022/11/11 04:35:35;;;;;;;4.20;3.90;;;;;;;3.62;100.00;97862.34;5032250;28;102086;-69
2022/11/11 04:41:25;;;;;;;4.03;3.73;;;;;;;3.66;100.00;97847.88;5033049;28;102172;-69
2022/11/11 04:47:13;;;;;;;4.33;4.03;;;;;;;3.75;100.00;97841.53;5033001;28;101713;-69
2022/11/11 04:49:58;;;;;;;4.50;4.20;;;;;;;3.66;100.00;97838.13;5029716;28;102034;-69
2022/11/11 04:52:50;;;;;;;4.53;4.13;;;;;;;3.69;100.00;97840.44;5029135;28;102251;-69
2022/11/11 04:58:40;;;;;;;4.47;4.07;;;;;;;3.57;100.00;97839.19;5032551;28;102030;-69
2022/11/11 05:11:13;;;;;;;4.10;3.80;;;;;;;3.41;100.00;97828.75;5032467;28;101782;-69
2022/11/11 05:27:00;;;;;;;4.30;3.90;;;;;;;3.35;100.00;97797.03;5031460;28;102253;-69
2022/11/11 05:29:47;;;;;;;4.90;4.50;;;;;;;3.32;100.00;97795.56;5032494;28;101691;-69
2022/11/11 05:32:44;;;;;;;5.33;4.90;;;;;;;3.31;100.00;97808.88;5028490;28;102344;-69
2022/11/11 05:39:10;;;;;;;4.20;3.90;;;;;;;2.97;100.00;97810.97;5031410;28;101931;-69
2022/11/11 05:42:00;;;;;;;4.80;4.40;;;;;;;3.02;100.00;97821.81;5028172;28;102229;-69
2022/11/11 05:44:47;;;;;;;7.27;4.47;;;;;;;3.06;100.00;97831.81;5029268;28;101891;-69
2022/11/11 05:47:33;;;;;;;5.23;4.83;;;;;;;3.08;100.00;97842.16;5028691;28;102494;-69
2022/11/11 05:50:18;;;;;;;14.50;7.13;;;;;;;3.00;100.00;97847.44;5027843;28;102251;-69
2022/11/11 05:53:54;;;;;;;5.73;5.27;;;;;;;3.09;100.00;97849.88;5021763;28;101811;-69
2022/11/11 05:56:40;;;;;;;7.03;6.43;;;;;;;3.07;100.00;97864.16;5031416;28;102102;-69
2022/11/11 05:59:26;;;;;;;7.00;6.40;;;;;;;3.14;100.00;97857.25;5028352;28;103140;-69
2022/11/11 06:03:04;;;;;;;7.97;6.67;;;;;;;3.13;100.00;97863.50;5028616;28;101667;-69
2022/11/11 06:05:56;;;;;;;6.17;5.60;;;;;;;3.13;100.00;97871.38;5018253;28;102301;-69
2022/11/11 06:08:42;;;;;;;6.73;6.13;;;;;;;3.26;100.00;97869.88;5008390;28;101689;-69
2022/11/11 06:11:48;;;;;;;7.00;6.30;;;;;;;3.33;100.00;97875.28;5022902;28;102090;-69
2022/11/11 06:14:34;;;;;;;8.17;6.40;;;;;;;3.35;100.00;97887.25;5027543;28;102237;-69
2022/11/11 06:17:20;;;;;;;7.40;6.70;;;;;;;3.34;100.00;97885.59;5027403;27;101733;-69
2022/11/11 06:20:06;;;;;;;7.70;6.40;;;;;;;3.39;100.00;97887.75;5030525;28;102049;-69
2022/11/11 06:22:57;;;;;;;7.83;6.90;;;;;;;3.48;100.00;97889.34;5028083;28;101722;-69
2022/11/11 06:28:47;;;;;;;6.67;6.07;;;;;;;3.54;100.00;97899.19;5030507;28;102220;-69
2022/11/11 06:31:40;;;;;;;7.63;6.80;;;;;;;3.62;100.00;97910.53;5027907;28;101716;-69
2022/11/11 06:34:32;;;;;;;7.03;6.40;;;;;;;3.68;100.00;97911.63;5027727;28;102088;-69
2022/11/11 06:37:17;;;;;;;7.43;6.03;;;;;;;3.68;100.00;97923.00;5027791;28;102222;-69
2022/11/11 06:40:04;;;;;;;6.07;5.50;;;;;;;3.80;100.00;97916.34;5027575;28;101783;-69
2022/11/11 06:43:39;;;;;;;7.57;5.87;;;;;;;3.84;100.00;97920.28;5028486;28;102130;-69
2022/11/11 06:46:26;;;;;;;6.47;5.87;;;;;;;3.91;100.00;97925.66;5033362;28;102221;-69
2022/11/11 06:49:13;;;;;;;6.30;5.70;;;;;;;3.86;100.00;97917.47;5031425;28;101815;-69
2022/11/11 06:52:21;;;;;;;7.83;5.50;;;;;;;3.70;100.00;97918.38;5027141;28;102634;-69
2022/11/11 06:55:09;;;;;;;5.80;5.30;;;;;;;3.90;100.00;97929.31;5027754;28;101911;-69
2022/11/11 06:57:55;;;;;;;6.07;5.47;;;;;;;4.14;100.00;97921.31;5027436;28;102192;-69
2022/11/11 07:00:41;;;;;;;6.50;6.00;;;;;;;4.00;100.00;97927.28;5026583;28;103385;-69
2022/11/11 07:03:26;;;;;;;7.00;6.40;;;;;;;4.09;100.00;97929.69;5027757;28;101653;-69
2022/11/11 07:06:12;;;;;;;7.47;6.30;;;;;;;4.13;100.00;97941.53;5027694;28;102064;-69
2022/11/11 07:08:57;;;;;;;7.73;6.80;;;;;;;4.35;100.00;97943.38;5027107;28;102227;-69
2022/11/11 07:11:45;;;;;;;7.13;6.43;;;;;;;4.52;100.00;97951.97;5030867;28;101821;-69
2022/11/11 07:14:31;;;;;;;7.57;6.93;;;;;;;4.51;100.00;97955.63;5027092;28;102244;-69
2022/11/11 07:17:17;;;;;;;6.80;6.17;;;;;;;4.71;100.00;97967.34;5027509;28;101646;-69
2022/11/11 07:20:04;;;;;;;7.20;6.53;;;;;;;4.79;100.00;97973.38;5027344;28;102017;-69
2022/11/11 07:23:13;;;;;;;6.50;6.00;;;;;;;4.92;100.00;97972.81;5026690;28;102222;-69
2022/11/11 07:25:58;;;;;;;7.03;6.27;;;;;;;5.06;100.00;97978.13;5027254;28;101918;-69
2022/11/11 07:28:45;;;;;;;7.60;6.67;;;;;;;5.04;100.00;97974.84;5029612;28;102149;-69
2022/11/11 07:31:41;;;;;;;6.67;6.10;;;;;;;5.07;100.00;97985.03;5030181;28;102182;-69
2022/11/11 07:34:27;;;;;;;6.70;6.10;;;;;;;5.08;100.00;97986.66;5030662;28;101793;-69
2022/11/11 07:37:12;;;;;;;6.43;5.83;;;;;;;4.94;100.00;97983.97;5033792;27;102048;-69
2022/11/11 07:39:58;;;;;;;6.80;6.10;;;;;;;5.07;100.00;97990.28;5030559;28;101855;-69
2022/11/11 07:43:17;;;;;;;6.30;5.70;;;;;;;5.05;100.00;97996.75;5030797;28;102076;-69
2022/11/11 07:46:04;;;;;;;6.20;5.70;;;;;;;5.14;100.00;97993.84;5031785;28;102284;-69
2022/11/11 07:48:50;;;;;;;7.90;6.40;;;;;;;5.33;100.00;97997.81;5030761;28;101870;-69
2022/11/11 07:51:38;;;;;;;5.67;5.17;;;;;;;5.49;100.00;98006.41;5030623;28;101710;-69
2022/11/11 07:54:25;;;;;;;6.40;5.80;;;;;;;5.58;100.00;98004.53;5029894;28;102252;-69
2022/11/11 07:57:10;;;;;;;5.73;5.23;;;;;;;5.74;100.00;98007.81;5019010;28;103026;-69
2022/11/11 07:59:56;;;;;;;6.67;5.60;;;;;;;5.88;100.00;98000.94;5014956;28;101751;-69
2022/11/11 08:02:49;;;;;;;6.80;6.20;;;;;;;6.03;100.00;98004.41;5033062;28;103482;-69
2022/11/11 08:05:44;;;;;;;6.60;5.87;;;;;;;6.24;100.00;98009.75;5030083;28;102092;-69
2022/11/11 08:08:29;;;;;;;7.60;6.93;;;;;;;6.30;100.00;98003.75;5029191;28;102227;-69
2022/11/11 08:13:39;;;;;;;7.63;6.80;;;;;;;6.24;100.00;98002.66;5030033;28;101753;-70
2022/11/11 08:14:21;;;;;;;6.93;6.23;;;;;;;6.18;100.00;97992.00;5028275;28;102223;-68
2022/11/11 08:17:07;;;;;;;6.30;5.80;;;;;;;6.23;100.00;98000.19;5035111;27;102192;-71
2022/11/11 08:19:54;;;;;;;6.37;5.87;;;;;;;6.13;100.00;97989.09;5027182;28;102873;-70
2022/11/11 08:22:43;;;;;;;7.60;6.80;;;;;;;6.23;100.00;97994.91;5029518;28;102084;-70
2022/11/11 08:25:29;;;;;;;6.57;5.97;;;;;;;6.36;100.00;97995.06;5023132;28;103224;-68
2022/11/11 08:28:14;;;;;;;6.80;6.20;;;;;;;6.32;100.00;97993.81;5033004;28;101717;-69
2022/11/11 08:31:01;;;;;;;7.50;6.70;;;;;;;6.26;100.00;97994.53;5028991;28;102836;-66
2022/11/11 08:34:14;;;;;;;6.70;5.97;;;;;;;6.02;100.00;97997.47;5029245;28;101692;-72
2022/11/11 08:37:17;;;;;;;5.73;5.07;;;;;;;5.81;100.00;97989.47;5029418;28;102085;-69
2022/11/11 08:40:03;;;;;;;10.27;5.50;;;;;;;5.83;100.00;97998.03;5028029;28;102232;-70
2022/11/11 08:42:48;;;;;;;6.53;5.93;;;;;;;5.90;100.00;97998.94;5028966;28;103565;-70
2022/11/11 08:45:34;;;;;;;7.00;6.40;;;;;;;5.92;100.00;97991.66;5030476;28;102080;-69
2022/11/11 08:48:19;;;;;;;7.77;7.07;;;;;;;5.86;100.00;97987.09;5028541;28;102312;-70
2022/11/11 08:51:05;;;;;;;9.20;8.30;;;;;;;5.95;100.00;97986.81;5032536;28;102299;-69
2022/11/11 08:57:34;;;;;;;9.07;8.20;;;;;;;6.16;100.00;97978.97;5028833;28;101701;-69
2022/11/11 09:00:20;;;;;;;9.83;8.57;;;;;;;6.35;100.00;97981.06;5028795;28;102127;-68
2022/11/11 09:07:17;;;;;;;8.80;8.10;;;;;;;6.64;100.00;97977.50;5028771;28;101909;-69
2022/11/11 09:10:02;;;;;;;9.60;8.63;;;;;;;6.76;100.00;97970.75;5028591;28;102078;-68
2022/11/11 09:12:58;;;;;;;8.87;8.03;;;;;;;6.87;100.00;97978.97;5028178;28;102250;-68
2022/11/11 09:15:43;;;;;;;10.83;9.77;;;;;;;7.24;100.00;97978.72;5028800;28;103217;-70
2022/11/11 09:18:30;;;;;;;10.73;9.67;;;;;;;7.56;100.00;97972.03;5031401;28;102151;-68
2022/11/11 09:21:16;;;;;;;10.30;9.30;;;;;;;7.69;100.00;97969.50;5028898;28;101767;-66
2022/11/11 09:24:09;;;;;;;9.97;9.07;;;;;;;8.02;100.00;97966.00;5026020;28;102107;-68
2022/11/11 09:26:55;;;;;;;10.40;9.30;;;;;;;8.25;100.00;97960.44;5027873;28;102313;-67
2022/11/11 09:29:42;;;;;;;9.80;8.90;;;;;;;8.39;100.00;97952.34;5028873;28;101927;-67
2022/11/11 09:32:51;;;;;;;10.40;9.37;;;;;;;8.53;100.00;97942.59;5008024;28;102093;-67
2022/11/11 09:36:30;;;;;;;10.07;9.17;;;;;;;9.01;100.00;97946.78;5007756;28;102697;-68
2022/11/11 09:39:15;;;;;;;8.63;7.83;;;;;;;9.25;100.00;97938.22;5008270;28;101993;-68
2022/11/11 09:42:25;;;;;;;9.47;7.53;;;;;;;9.39;100.00;97929.25;5008305;28;102032;-67
2022/11/11 09:45:21;;;;;;;6.93;6.33;;;;;;;9.74;100.00;97922.66;5012319;28;101690;-66
2022/11/11 09:48:26;;;;;;;5.77;5.27;;;;;;;9.91;100.00;97919.34;5008381;28;102048;-67
2022/11/11 09:51:19;;;;;;;4.30;4.00;;;;;;;10.17;100.00;97913.16;5006362;28;102223;-67
2022/11/11 09:54:13;;;;;;;3.93;3.63;;;;;;;10.20;100.00;97915.41;5008325;28;101703;-67
2022/11/11 09:57:02;;;;;;;3.83;3.53;;;;;;;10.36;100.00;97912.25;5026242;28;102218;-67
2022/11/11 09:59:52;;;;;;;3.87;3.07;;;;;;;10.46;100.00;97917.94;5027267;28;102276;-67
2022/11/11 10:03:18;;;;;;;3.67;3.37;;;;;;;10.17;100.00;97908.66;5027428;28;101758;-67
2022/11/11 10:06:32;;;;;;;4.20;3.13;;;;;;;10.55;100.00;97906.84;5027959;28;102246;-67
2022/11/11 10:09:24;;;;;;;3.93;2.80;;;;;;;10.94;100.00;97905.75;5027385;28;102343;-69
2022/11/11 10:12:15;;;;;;;3.00;2.80;;;;;;;11.32;100.00;97895.81;5034514;28;101811;-67
2022/11/11 10:15:02;;;;;;;3.50;3.00;;;;;;;11.56;100.00;97905.66;5027592;28;102271;-65
2022/11/11 10:18:09;;;;;;;2.83;2.63;;;;;;;11.86;100.00;97903.94;5030137;27;101811;-67
2022/11/11 10:20:56;;;;;;;2.50;2.30;;;;;;;11.77;100.00;97908.75;5024898;28;102043;-67
2022/11/11 10:24:02;;;;;;;2.67;2.40;;;;;;;11.89;100.00;97901.66;5030064;28;102264;-67
2022/11/11 10:26:47;;;;;;;2.30;2.20;;;;;;;12.00;100.00;97902.78;5027654;28;102178;-68
2022/11/11 10:29:43;;;;;;;2.50;2.30;;;;;;;12.09;100.00;97896.91;5027923;28;102187;-66
2022/11/11 10:33:14;;;;;;;2.80;2.40;;;;;;;12.28;100.00;97898.53;5026909;28;102234;-67
2022/11/11 10:36:17;;;;;;;2.60;2.40;;;;;;;12.35;100.00;97901.09;5027700;28;101891;-67
2022/11/11 10:39:05;;;;;;;2.40;2.30;;;;;;;12.42;100.00;97899.19;5030479;28;102034;-67
2022/11/11 10:42:01;;;;;;;4.63;2.93;;;;;;;12.87;100.00;97895.06;5027178;28;101877;-67
2022/11/11 10:44:46;;;;;;;2.93;2.70;;;;;;;13.05;100.00;97898.50;5007632;28;102165;-68
2022/11/11 10:47:44;;;;;;;2.73;2.53;;;;;;;13.25;100.00;97909.66;5006391;28;102291;-68
2022/11/11 10:50:35;;;;;;;5.00;4.20;;;;;;;13.21;100.00;97907.69;5020267;28;103395;-66
2022/11/11 10:54:00;;;;;;;4.83;4.27;;;;;;;13.43;100.00;97908.78;5007020;28;102082;-66
2022/11/11 10:56:55;;;;;;;3.20;3.00;;;;;;;13.43;100.00;97906.09;5006709;28;102304;-67
2022/11/11 10:59:47;;;;;;;3.27;2.97;;;;;;;13.75;100.00;97907.38;5007058;28;102072;-66
2022/11/11 11:03:11;;;;;;;2.97;2.77;;;;;;;13.63;100.00;97912.72;5007663;28;102088;-66
2022/11/11 11:06:25;;;;;;;2.90;2.70;;;;;;;13.81;100.00;97914.47;5013162;28;101856;-67
2022/11/11 11:09:18;;;;;;;3.13;2.90;;;;;;;13.79;100.00;97911.22;5010528;28;102088;-67
2022/11/11 11:12:15;;;;;;;3.20;3.00;;;;;;;14.04;100.00;97909.09;5009985;28;101790;-68
2022/11/11 11:15:04;;;;;;;3.27;2.80;;;;;;;14.28;100.00;97913.41;5027985;28;101831;-66
2022/11/11 11:17:56;;;;;;;2.83;2.60;;;;;;;14.30;100.00;97914.78;5032743;28;102092;-67
2022/11/11 11:20:55;;;;;;;2.80;2.60;;;;;;;14.30;100.00;97911.28;5029645;28;102296;-66
2022/11/11 11:23:47;;;;;;;2.60;2.40;;;;;;;14.15;100.00;97918.97;5030316;28;102281;-66
2022/11/11 11:26:44;;;;;;;2.50;2.30;;;;;;;14.42;100.00;97925.44;5030667;28;102556;-66
2022/11/11 11:29:34;;;;;;;2.43;2.23;;;;;;;14.51;100.00;97918.69;5033106;28;102254;-67
2022/11/11 11:32:57;;;;;;;3.37;2.77;;;;;;;14.75;100.00;97920.22;5030082;28;102075;-65
2022/11/11 11:39:33;;;;;;;3.00;2.23;;;;;;;15.12;100.00;97908.03;5030289;28;101707;-66
2022/11/11 11:42:33;;;;;;;2.60;2.40;;;;;;;15.10;100.00;97910.16;5030526;28;102088;-66
2022/11/11 11:45:27;;;;;;;2.50;2.30;;;;;;;15.61;100.00;97908.09;5030466;28;102298;-66
2022/11/11 11:48:24;;;;;;;3.50;3.13;;;;;;;15.59;100.00;97906.72;5030184;28;101741;-67
2022/11/11 11:51:20;;;;;;;2.50;2.30;;;;;;;15.11;100.00;97901.06;5022280;28;102066;-66
2022/11/11 11:54:49;;;;;;;2.77;2.50;;;;;;;15.40;100.00;97889.22;5029318;28;103326;-67
2022/11/11 11:57:49;;;;;;;2.57;2.37;;;;;;;15.37;100.00;97879.03;4997707;28;102013;-66
2022/11/11 12:00:44;;;;;;;2.60;2.40;;;;;;;15.21;100.00;97872.53;5009023;28;102631;-68
2022/11/11 12:04:11;;;;;;;2.27;2.07;;;;;;;15.33;100.00;97862.63;5009857;28;101810;-68
2022/11/11 12:07:40;;;;;;;3.73;2.30;;;;;;;14.83;100.00;97867.06;5009857;28;102131;-68
2022/11/11 12:10:37;;;;;;;3.40;2.60;;;;;;;15.35;100.00;97862.34;5009285;28;102348;-68
2022/11/11 12:13:56;;;;;;;4.70;2.50;;;;;;;15.44;100.00;97874.28;5009926;28;102098;-68
2022/11/11 12:16:51;;;;;;;2.90;2.60;;;;;;;15.73;100.00;97890.03;5010091;28;102140;-68
2022/11/11 12:19:49;;;;;;;3.10;2.30;;;;;;;15.48;100.00;97897.69;5008764;28;102253;-68
2022/11/11 12:22:55;;;;;;;2.47;2.17;;;;;;;15.24;100.00;97895.38;5009611;28;101757;-68
2022/11/11 12:25:54;;;;;;;2.47;1.90;;;;;;;15.69;100.00;97888.88;5012486;28;102477;-68
2022/11/11 12:28:55;;;;;;;2.37;2.00;;;;;;;15.44;100.00;97875.13;5009468;28;101689;-68
2022/11/11 12:32:07;;;;;;;1.80;1.70;;;;;;;15.67;100.00;97868.72;5009513;28;102210;-68
2022/11/11 12:35:27;;;;;;;1.60;1.50;;;;;;;16.38;100.00;97864.06;5023555;28;102244;-68
2022/11/11 12:38:27;;;;;;;2.80;1.87;;;;;;;16.42;100.00;97878.63;4948302;28;101887;-68
2022/11/11 12:41:23;;;;;;;1.70;1.60;;;;;;;16.74;100.00;97871.44;4948132;28;102058;-68
2022/11/11 12:44:11;;;;;;;1.73;1.63;;;;;;;16.07;100.00;97867.41;4947633;28;102273;-68
2022/11/11 12:47:15;;;;;;;1.70;1.60;;;;;;;16.07;100.00;97861.25;4950770;28;101802;-68
2022/11/11 12:50:13;;;;;;;2.50;1.90;;;;;;;15.88;100.00;97865.28;4948215;28;102088;-68
2022/11/11 12:53:15;;;;;;;1.80;1.70;;;;;;;15.21;100.00;97867.19;4952795;28;102264;-68
2022/11/11 12:56:13;;;;;;;2.57;1.90;;;;;;;15.76;100.00;97856.53;4947805;28;102059;-68
2022/11/11 12:59:07;;;;;;;5.40;1.80;;;;;;;16.27;100.00;97850.75;4948650;28;102241;-68
2022/11/11 13:02:26;;;;;;;1.93;1.83;;;;;;;16.41;100.00;97849.34;4947692;28;101913;-68
2022/11/11 13:05:52;;;;;;;2.27;1.90;;;;;;;16.87;100.00;97848.75;4948659;28;102034;-65
2022/11/11 13:09:01;;;;;;;2.70;2.00;;;;;;;16.95;100.00;97846.41;4927136;28;101877;-68
2022/11/11 13:12:10;;;;;;;3.20;1.97;;;;;;;16.93;100.00;97834.28;4976939;28;103235;-67
2022/11/11 13:15:02;;;;;;;2.77;1.53;;;;;;;17.01;100.00;97837.31;5028462;28;102066;-66
2022/11/11 13:17:50;;;;;;;2.70;1.70;;;;;;;16.92;100.00;97835.34;5030503;28;102263;-67
2022/11/11 13:20:46;;;;;;;2.67;1.90;;;;;;;16.58;100.00;97825.91;5032141;28;101727;-67
2022/11/11 13:23:39;;;;;;;2.13;1.90;;;;;;;16.79;100.00;97833.09;5028196;28;101703;-66
2022/11/11 13:26:30;;;;;;;1.80;1.70;;;;;;;17.34;100.00;97828.19;5028246;28;101715;-66
2022/11/11 13:30:00;;;;;;;1.90;1.67;;;;;;;17.49;100.00;97834.50;5028350;28;102089;-67
2022/11/11 13:33:04;;;;;;;1.47;1.40;;;;;;;17.83;100.00;97845.75;5028089;28;102229;-66
2022/11/11 13:36:17;;;;;;;1.83;1.73;;;;;;;17.78;100.00;97845.72;5028544;28;101945;-68
2022/11/11 13:39:04;;;;;;;1.67;1.47;;;;;;;18.07;100.00;97841.56;5028503;28;102076;-67
2022/11/11 13:45:36;;;;;;;1.90;1.80;;;;;;;18.12;100.00;97849.66;5033025;28;102048;-66
2022/11/11 13:48:27;;;;;;;2.63;1.80;;;;;;;18.17;100.00;97853.19;5027793;28;102268;-66
2022/11/11 13:51:22;;;;;;;2.13;1.80;;;;;;;18.31;100.00;97859.69;5008291;28;101805;-66
2022/11/11 13:54:22;;;;;;;2.37;1.57;;;;;;;18.36;100.00;97865.13;5008106;28;102130;-66
2022/11/11 13:57:18;;;;;;;4.07;1.87;;;;;;;18.25;100.00;97862.66;5013146;28;103516;-66
2022/11/11 14:00:07;;;;;;;2.87;1.80;;;;;;;18.35;100.00;97855.44;5027974;28;101719;-66
2022/11/11 14:03:29;;;;;;;2.13;2.00;;;;;;;17.62;100.00;97850.19;5027727;28;102065;-66
2022/11/11 14:07:07;;;;;;;2.03;1.90;;;;;;;17.30;100.00;97851.25;4929213;28;103138;-66
2022/11/11 14:10:02;;;;;;;2.53;2.00;;;;;;;17.06;100.00;97866.13;4927205;28;101882;-66
2022/11/11 14:17:04;;;;;;;2.17;2.07;;;;;;;16.92;100.00;97860.34;4926905;28;102055;-66
2022/11/11 14:19:50;;;;;;;2.17;2.07;;;;;;;16.61;100.00;97846.84;4932919;28;102064;-66
2022/11/11 14:23:17;;;;;;;2.43;1.90;;;;;;;16.99;100.00;97852.06;4945158;28;102317;-66
2022/11/11 14:26:34;;;;;;;2.00;1.90;;;;;;;17.20;100.00;97853.88;4949228;28;102110;-66
2022/11/11 14:29:20;;;;;;;3.50;2.10;;;;;;;17.13;100.00;97847.91;4946528;28;102033;-66
2022/11/11 14:32:46;;;;;;;3.37;1.90;;;;;;;16.99;100.00;97846.69;4945464;28;102305;-66
2022/11/11 14:35:59;;;;;;;4.00;2.20;;;;;;;16.85;100.00;97850.88;4948803;28;101969;-66
2022/11/11 14:38:51;;;;;;;3.83;3.07;;;;;;;16.62;100.00;97851.97;4948354;28;102099;-66
2022/11/11 14:42:27;;;;;;;3.60;3.07;;;;;;;16.46;100.00;97862.84;4948781;28;102277;-66
2022/11/11 14:45:58;;;;;;;3.73;3.10;;;;;;;16.45;100.00;97867.38;5030382;28;102060;-66
2022/11/11 14:49:00;;;;;;;3.63;3.00;;;;;;;16.13;100.00;97869.09;5026926;28;102241;-66
2022/11/11 14:51:49;;;;;;;5.40;3.67;;;;;;;15.92;100.00;97861.06;5027286;28;101785;-66
2022/11/11 14:54:47;;;;;;;3.33;3.00;;;;;;;15.49;100.00;97860.97;5027448;28;102065;-67
2022/11/11 14:57:37;;;;;;;3.43;2.90;;;;;;;15.68;100.00;97860.44;5026756;28;102274;-66
2022/11/11 15:00:26;;;;;;;2.90;2.70;;;;;;;15.57;100.00;97847.13;5027344;28;101695;-66
2022/11/11 15:03:35;;;;;;;66.77;53.90;;;;;;;15.43;100.00;97851.22;5025038;28;102041;-66
2022/11/11 15:06:33;;;;;;;4.50;3.80;;;;;;;15.85;100.00;97849.66;5020570;28;102264;-66
2022/11/11 15:09:49;;;;;;;45.00;40.10;;;;;;;15.76;100.00;97857.31;5024348;28;102222;-66
2022/11/11 15:12:52;;;;;;;6.03;4.80;;;;;;;15.64;100.00;97861.19;5020811;28;102251;-67
2022/11/11 15:15:47;;;;;;;10.93;9.83;;;;;;;15.55;100.00;97873.38;5002451;28;102337;-66
2022/11/11 15:18:53;;;;;;;8.07;7.27;;;;;;;14.87;100.00;97867.44;5002439;28;102188;-67
2022/11/11 15:21:51;;;;;;;4.90;4.30;;;;;;;14.77;100.00;97867.25;5004045;28;102623;-66
2022/11/11 15:24:42;;;;;;;4.70;4.20;;;;;;;14.77;100.00;97880.63;5021515;28;102326;-67
2022/11/11 15:27:38;;;;;;;5.70;4.87;;;;;;;14.22;100.00;97887.59;5022610;28;102439;-66
2022/11/11 15:30:35;;;;;;;3.57;2.90;;;;;;;14.11;100.00;97893.75;5021620;28;102298;-66
2022/11/11 15:33:35;;;;;;;7.00;2.90;;;;;;;14.20;100.00;97897.69;5021560;28;102402;-67
2022/11/11 15:36:33;;;;;;;4.67;2.93;;;;;;;13.98;100.00;97891.31;5025700;28;102308;-67
2022/11/11 15:39:24;;;;;;;3.83;3.00;;;;;;;13.65;100.00;97893.78;5022692;28;102410;-67
2022/11/11 15:42:34;;;;;;;4.07;3.43;;;;;;;13.25;100.00;97895.53;5026373;28;102625;-67
2022/11/11 15:45:25;;;;;;;4.77;3.93;;;;;;;13.31;100.00;97883.91;5026908;28;102477;-67
2022/11/11 15:48:19;;;;;;;6.13;3.50;;;;;;;13.07;100.00;97887.56;5026507;28;101732;-67
2022/11/11 15:51:16;;;;;;;4.23;3.80;;;;;;;12.99;100.00;97894.09;5029571;28;102066;-67